<?xml version="1.0" encoding="UTF-8" standalone="no" ?>
<gpx xmlns="http://www.topografix.com/GPX/1/1" xmlns:xsi="http://www.w3.org/2001/XMLSchema-instance" xsi:schemaLocation="http://www.topografix.com/GPX/1/1 http://www.topografix.com/GPX/1/1/gpx.xsd" version="1.1" creator="VisuGPX - https://www.visugpx.com">
  <metadata>
    <name>22km de VTT en mode aventure dans l'Esterel.</name>
    <desc><![CDATA[Très belle randonnée en mode aventure pour trouvé de nouveaux passages pour d'autres sortie
vidéo
https://www.youtube.com/watch?v=L8Hs_UdiZp4]]></desc>
  </metadata>
  <trk>
    <name><![CDATA[22km de VTT en mode aventure dans l'Esterel.]]></name>
    <desc><![CDATA[tres belle randonnée .]]></desc>
    <trkseg>
      <trkpt lat="43.45454" lon="6.83242">
        <ele>60.92592</ele>
        <time>2023-04-28T10:52:30.000Z</time>
      </trkpt>
      <trkpt lat="43.4546" lon="6.83235">
        <ele>60.76746</ele>
        <time>2023-04-28T10:52:36.000Z</time>
      </trkpt>
      <trkpt lat="43.45492" lon="6.8319">
        <ele>61.73387</ele>
        <time>2023-04-28T10:52:39.000Z</time>
      </trkpt>
      <trkpt lat="43.45502" lon="6.83114">
        <ele>61.15668</ele>
        <time>2023-04-28T10:52:45.000Z</time>
      </trkpt>
      <trkpt lat="43.4552" lon="6.83069">
        <ele>57.25917</ele>
        <time>2023-04-28T10:52:51.000Z</time>
      </trkpt>
      <trkpt lat="43.45524" lon="6.82993">
        <ele>57.49626</ele>
        <time>2023-04-28T10:53:08.000Z</time>
      </trkpt>
      <trkpt lat="43.45559" lon="6.82958">
        <ele>54.84898</ele>
        <time>2023-04-28T10:53:14.000Z</time>
      </trkpt>
      <trkpt lat="43.45569" lon="6.83">
        <ele>52.78886</ele>
        <time>2023-04-28T10:53:21.000Z</time>
      </trkpt>
      <trkpt lat="43.45586" lon="6.83054">
        <ele>49.48615</ele>
        <time>2023-04-28T10:53:26.000Z</time>
      </trkpt>
      <trkpt lat="43.45588" lon="6.83101">
        <ele>49.46431</ele>
        <time>2023-04-28T10:53:33.000Z</time>
      </trkpt>
      <trkpt lat="43.45602" lon="6.83144">
        <ele>42.95443</ele>
        <time>2023-04-28T10:53:56.000Z</time>
      </trkpt>
      <trkpt lat="43.45617" lon="6.83189">
        <ele>41.96283</ele>
        <time>2023-04-28T10:54:05.000Z</time>
      </trkpt>
      <trkpt lat="43.45641" lon="6.83234">
        <ele>38.75271</ele>
        <time>2023-04-28T10:54:17.000Z</time>
      </trkpt>
      <trkpt lat="43.45666" lon="6.83307">
        <ele>37.31248</ele>
        <time>2023-04-28T10:54:41.000Z</time>
      </trkpt>
      <trkpt lat="43.45674" lon="6.83354">
        <ele>35.71783</ele>
        <time>2023-04-28T10:54:47.000Z</time>
      </trkpt>
      <trkpt lat="43.45681" lon="6.83386">
        <ele>34.6522</ele>
        <time>2023-04-28T10:55:31.000Z</time>
      </trkpt>
      <trkpt lat="43.45688" lon="6.83418">
        <ele>34.36205</ele>
        <time>2023-04-28T10:57:03.000Z</time>
      </trkpt>
      <trkpt lat="43.45683" lon="6.83474">
        <ele>29.85196</ele>
        <time>2023-04-28T10:58:08.000Z</time>
      </trkpt>
      <trkpt lat="43.45675" lon="6.8353">
        <ele>28.42949</ele>
        <time>2023-04-28T10:58:59.000Z</time>
      </trkpt>
      <trkpt lat="43.45688" lon="6.83592">
        <ele>27.12063</ele>
        <time>2023-04-28T10:59:12.000Z</time>
      </trkpt>
      <trkpt lat="43.45706" lon="6.83644">
        <ele>24.45291</ele>
        <time>2023-04-28T10:59:41.000Z</time>
      </trkpt>
      <trkpt lat="43.45728" lon="6.83706">
        <ele>20.68837</ele>
        <time>2023-04-28T10:59:53.000Z</time>
      </trkpt>
      <trkpt lat="43.45731" lon="6.83775">
        <ele>17.21566</ele>
        <time>2023-04-28T11:00:10.000Z</time>
      </trkpt>
      <trkpt lat="43.45728" lon="6.83865">
        <ele>14.23061</ele>
        <time>2023-04-28T11:00:22.000Z</time>
      </trkpt>
      <trkpt lat="43.45742" lon="6.83935">
        <ele>11.58238</ele>
        <time>2023-04-28T11:00:47.000Z</time>
      </trkpt>
      <trkpt lat="43.45778" lon="6.84022">
        <ele>12.88469</ele>
        <time>2023-04-28T11:01:20.000Z</time>
      </trkpt>
      <trkpt lat="43.45849" lon="6.84136">
        <ele>13.63508</ele>
        <time>2023-04-28T11:01:31.000Z</time>
      </trkpt>
      <trkpt lat="43.45873" lon="6.84153">
        <ele>14.7255</ele>
        <time>2023-04-28T11:01:39.000Z</time>
      </trkpt>
      <trkpt lat="43.45897" lon="6.84149">
        <ele>14.90059</ele>
        <time>2023-04-28T11:01:50.000Z</time>
      </trkpt>
      <trkpt lat="43.45923" lon="6.84182">
        <ele>15.23647</ele>
        <time>2023-04-28T11:02:00.000Z</time>
      </trkpt>
      <trkpt lat="43.45947" lon="6.84196">
        <ele>15.58117</ele>
        <time>2023-04-28T11:02:16.000Z</time>
      </trkpt>
      <trkpt lat="43.45926" lon="6.84243">
        <ele>14.69225</ele>
        <time>2023-04-28T11:02:27.000Z</time>
      </trkpt>
      <trkpt lat="43.45907" lon="6.84268">
        <ele>16.97219</ele>
        <time>2023-04-28T11:02:32.000Z</time>
      </trkpt>
      <trkpt lat="43.45907" lon="6.84281">
        <ele>17.87937</ele>
        <time>2023-04-28T11:02:41.000Z</time>
      </trkpt>
      <trkpt lat="43.4593" lon="6.84277">
        <ele>21.18848</ele>
        <time>2023-04-28T11:03:05.000Z</time>
      </trkpt>
      <trkpt lat="43.45992" lon="6.84314">
        <ele>28.43528</ele>
        <time>2023-04-28T11:03:15.000Z</time>
      </trkpt>
      <trkpt lat="43.46016" lon="6.84298">
        <ele>27.41464</ele>
        <time>2023-04-28T11:03:29.000Z</time>
      </trkpt>
      <trkpt lat="43.4605" lon="6.84296">
        <ele>30.39538</ele>
        <time>2023-04-28T11:03:43.000Z</time>
      </trkpt>
      <trkpt lat="43.46081" lon="6.84322">
        <ele>32.25252</ele>
        <time>2023-04-28T11:03:53.000Z</time>
      </trkpt>
      <trkpt lat="43.46087" lon="6.84359">
        <ele>34.50933</ele>
        <time>2023-04-28T11:04:59.000Z</time>
      </trkpt>
      <trkpt lat="43.4606" lon="6.8441">
        <ele>34.58521</ele>
        <time>2023-04-28T11:05:19.000Z</time>
      </trkpt>
      <trkpt lat="43.46073" lon="6.84492">
        <ele>38.41056</ele>
        <time>2023-04-28T11:05:25.000Z</time>
      </trkpt>
      <trkpt lat="43.46087" lon="6.8451">
        <ele>39.21571</ele>
        <time>2023-04-28T11:05:40.000Z</time>
      </trkpt>
      <trkpt lat="43.46131" lon="6.84537">
        <ele>41.92908</ele>
        <time>2023-04-28T11:05:48.000Z</time>
      </trkpt>
      <trkpt lat="43.46151" lon="6.84561">
        <ele>43.36379</ele>
        <time>2023-04-28T11:06:11.000Z</time>
      </trkpt>
      <trkpt lat="43.46186" lon="6.84652">
        <ele>46.93564</ele>
        <time>2023-04-28T11:06:34.000Z</time>
      </trkpt>
      <trkpt lat="43.46235" lon="6.84736">
        <ele>49.73425</ele>
        <time>2023-04-28T11:06:59.000Z</time>
      </trkpt>
      <trkpt lat="43.46302" lon="6.8481">
        <ele>53.6026</ele>
        <time>2023-04-28T11:07:11.000Z</time>
      </trkpt>
      <trkpt lat="43.46312" lon="6.84846">
        <ele>55.74961</ele>
        <time>2023-04-28T11:07:44.000Z</time>
      </trkpt>
      <trkpt lat="43.46376" lon="6.84958">
        <ele>58.70577</ele>
        <time>2023-04-28T11:07:59.000Z</time>
      </trkpt>
      <trkpt lat="43.46379" lon="6.85024">
        <ele>61.99561</ele>
        <time>2023-04-28T11:08:03.000Z</time>
      </trkpt>
      <trkpt lat="43.46386" lon="6.85042">
        <ele>63.11615</ele>
        <time>2023-04-28T11:08:06.000Z</time>
      </trkpt>
      <trkpt lat="43.46394" lon="6.85049">
        <ele>64.1703</ele>
        <time>2023-04-28T11:08:14.000Z</time>
      </trkpt>
      <trkpt lat="43.46421" lon="6.85044">
        <ele>63.22666</ele>
        <time>2023-04-28T11:08:23.000Z</time>
      </trkpt>
      <trkpt lat="43.46442" lon="6.85076">
        <ele>63.65707</ele>
        <time>2023-04-28T11:08:33.000Z</time>
      </trkpt>
      <trkpt lat="43.4645" lon="6.85119">
        <ele>64.63506</ele>
        <time>2023-04-28T11:08:48.000Z</time>
      </trkpt>
      <trkpt lat="43.46447" lon="6.85186">
        <ele>68.06607</ele>
        <time>2023-04-28T11:09:06.000Z</time>
      </trkpt>
      <trkpt lat="43.46409" lon="6.85242">
        <ele>70.88478</ele>
        <time>2023-04-28T11:09:17.000Z</time>
      </trkpt>
      <trkpt lat="43.46436" lon="6.85274">
        <ele>71.02022</ele>
        <time>2023-04-28T11:09:21.000Z</time>
      </trkpt>
      <trkpt lat="43.46436" lon="6.85292">
        <ele>71.53706</ele>
        <time>2023-04-28T11:09:29.000Z</time>
      </trkpt>
      <trkpt lat="43.46417" lon="6.85314">
        <ele>73.6228</ele>
        <time>2023-04-28T11:09:41.000Z</time>
      </trkpt>
      <trkpt lat="43.46375" lon="6.85327">
        <ele>76.45155</ele>
        <time>2023-04-28T11:09:45.000Z</time>
      </trkpt>
      <trkpt lat="43.46366" lon="6.8534">
        <ele>77.16842</ele>
        <time>2023-04-28T11:09:51.000Z</time>
      </trkpt>
      <trkpt lat="43.46362" lon="6.8537">
        <ele>75.71881</ele>
        <time>2023-04-28T11:09:56.000Z</time>
      </trkpt>
      <trkpt lat="43.46345" lon="6.85381">
        <ele>79.25219</ele>
        <time>2023-04-28T11:10:05.000Z</time>
      </trkpt>
      <trkpt lat="43.46357" lon="6.85424">
        <ele>78.43159</ele>
        <time>2023-04-28T11:10:39.000Z</time>
      </trkpt>
      <trkpt lat="43.46355" lon="6.85445">
        <ele>78.59095</ele>
        <time>2023-04-28T11:10:58.000Z</time>
      </trkpt>
      <trkpt lat="43.4634" lon="6.85471">
        <ele>80.45751</ele>
        <time>2023-04-28T11:11:08.000Z</time>
      </trkpt>
      <trkpt lat="43.46342" lon="6.85514">
        <ele>80.33163</ele>
        <time>2023-04-28T11:11:12.000Z</time>
      </trkpt>
      <trkpt lat="43.46351" lon="6.85521">
        <ele>80.4556</ele>
        <time>2023-04-28T11:11:41.000Z</time>
      </trkpt>
      <trkpt lat="43.46423" lon="6.8546">
        <ele>83.57775</ele>
        <time>2023-04-28T11:11:45.000Z</time>
      </trkpt>
      <trkpt lat="43.46434" lon="6.85462">
        <ele>84.385</ele>
        <time>2023-04-28T11:11:55.000Z</time>
      </trkpt>
      <trkpt lat="43.46448" lon="6.85493">
        <ele>86.90231</ele>
        <time>2023-04-28T11:12:05.000Z</time>
      </trkpt>
      <trkpt lat="43.46468" lon="6.85512">
        <ele>85.98391</ele>
        <time>2023-04-28T11:12:24.000Z</time>
      </trkpt>
      <trkpt lat="43.46467" lon="6.8558">
        <ele>89.71896</ele>
        <time>2023-04-28T11:12:30.000Z</time>
      </trkpt>
      <trkpt lat="43.46475" lon="6.856">
        <ele>89.98991</ele>
        <time>2023-04-28T11:12:48.000Z</time>
      </trkpt>
      <trkpt lat="43.46508" lon="6.85643">
        <ele>93.59381</ele>
        <time>2023-04-28T11:12:58.000Z</time>
      </trkpt>
      <trkpt lat="43.46526" lon="6.85613">
        <ele>91.85406</ele>
        <time>2023-04-28T11:13:01.000Z</time>
      </trkpt>
      <trkpt lat="43.46538" lon="6.85621">
        <ele>90.82741</ele>
        <time>2023-04-28T11:13:10.000Z</time>
      </trkpt>
      <trkpt lat="43.46529" lon="6.85696">
        <ele>88.12666</ele>
        <time>2023-04-28T11:13:12.000Z</time>
      </trkpt>
      <trkpt lat="43.46533" lon="6.85711">
        <ele>87.2449</ele>
        <time>2023-04-28T11:13:29.000Z</time>
      </trkpt>
      <trkpt lat="43.46647" lon="6.85776">
        <ele>79.83626</ele>
        <time>2023-04-28T11:13:32.000Z</time>
      </trkpt>
      <trkpt lat="43.46657" lon="6.85802">
        <ele>76.32793</ele>
        <time>2023-04-28T11:13:36.000Z</time>
      </trkpt>
      <trkpt lat="43.46647" lon="6.85844">
        <ele>76.48064</ele>
        <time>2023-04-28T11:13:41.000Z</time>
      </trkpt>
      <trkpt lat="43.46677" lon="6.85876">
        <ele>74.88941</ele>
        <time>2023-04-28T11:13:43.000Z</time>
      </trkpt>
      <trkpt lat="43.4669" lon="6.85875">
        <ele>73.72799</ele>
        <time>2023-04-28T11:13:50.000Z</time>
      </trkpt>
      <trkpt lat="43.46697" lon="6.85813">
        <ele>73.81508</ele>
        <time>2023-04-28T11:14:01.000Z</time>
      </trkpt>
      <trkpt lat="43.46735" lon="6.85699">
        <ele>68.20821</ele>
        <time>2023-04-28T11:14:05.000Z</time>
      </trkpt>
      <trkpt lat="43.46758" lon="6.85666">
        <ele>66.8763</ele>
        <time>2023-04-28T11:14:11.000Z</time>
      </trkpt>
      <trkpt lat="43.46809" lon="6.85646">
        <ele>63.19192</ele>
        <time>2023-04-28T11:14:20.000Z</time>
      </trkpt>
      <trkpt lat="43.46891" lon="6.85648">
        <ele>59.07187</ele>
        <time>2023-04-28T11:14:26.000Z</time>
      </trkpt>
      <trkpt lat="43.46944" lon="6.85636">
        <ele>57.31602</ele>
        <time>2023-04-28T11:14:36.000Z</time>
      </trkpt>
      <trkpt lat="43.47021" lon="6.85647">
        <ele>55.20031</ele>
        <time>2023-04-28T11:14:41.000Z</time>
      </trkpt>
      <trkpt lat="43.47039" lon="6.85632">
        <ele>52.22104</ele>
        <time>2023-04-28T11:14:43.000Z</time>
      </trkpt>
      <trkpt lat="43.4704" lon="6.85622">
        <ele>54.93403</ele>
        <time>2023-04-28T11:14:45.000Z</time>
      </trkpt>
      <trkpt lat="43.47034" lon="6.85614">
        <ele>57.96207</ele>
        <time>2023-04-28T11:14:58.000Z</time>
      </trkpt>
      <trkpt lat="43.46986" lon="6.85591">
        <ele>55.99029</ele>
        <time>2023-04-28T11:15:11.000Z</time>
      </trkpt>
      <trkpt lat="43.46935" lon="6.8558">
        <ele>57.22228</ele>
        <time>2023-04-28T11:15:18.000Z</time>
      </trkpt>
      <trkpt lat="43.4691" lon="6.85562">
        <ele>58.48406</ele>
        <time>2023-04-28T11:15:18.000Z</time>
      </trkpt>
      <trkpt lat="43.46814" lon="6.85529">
        <ele>62.22075</ele>
        <time>2023-04-28T11:15:40.000Z</time>
      </trkpt>
      <trkpt lat="43.46789" lon="6.855">
        <ele>65.53425</ele>
        <time>2023-04-28T11:15:47.000Z</time>
      </trkpt>
      <trkpt lat="43.46773" lon="6.85462">
        <ele>64.9158</ele>
        <time>2023-04-28T11:15:54.000Z</time>
      </trkpt>
      <trkpt lat="43.46755" lon="6.85257">
        <ele>70.98509</ele>
        <time>2023-04-28T11:16:26.000Z</time>
      </trkpt>
      <trkpt lat="43.46739" lon="6.85158">
        <ele>73.76694</ele>
        <time>2023-04-28T11:16:42.000Z</time>
      </trkpt>
      <trkpt lat="43.46745" lon="6.85129">
        <ele>76.53163</ele>
        <time>2023-04-28T11:16:47.000Z</time>
      </trkpt>
      <trkpt lat="43.46778" lon="6.85047">
        <ele>79.53486</ele>
        <time>2023-04-28T11:17:03.000Z</time>
      </trkpt>
      <trkpt lat="43.46764" lon="6.84986">
        <ele>80.39024</ele>
        <time>2023-04-28T11:17:12.000Z</time>
      </trkpt>
      <trkpt lat="43.46763" lon="6.84948">
        <ele>79.88848</ele>
        <time>2023-04-28T11:17:18.000Z</time>
      </trkpt>
      <trkpt lat="43.46755" lon="6.84925">
        <ele>80.19035</ele>
        <time>2023-04-28T11:17:22.000Z</time>
      </trkpt>
      <trkpt lat="43.46688" lon="6.84857">
        <ele>81.64812</ele>
        <time>2023-04-28T11:17:40.000Z</time>
      </trkpt>
      <trkpt lat="43.46658" lon="6.84842">
        <ele>79.97835</ele>
        <time>2023-04-28T11:18:01.000Z</time>
      </trkpt>
      <trkpt lat="43.46659" lon="6.84834">
        <ele>80.52021</ele>
        <time>2023-04-28T11:19:10.000Z</time>
      </trkpt>
      <trkpt lat="43.46683" lon="6.84783">
        <ele>84.34633</ele>
        <time>2023-04-28T11:19:23.000Z</time>
      </trkpt>
      <trkpt lat="43.46708" lon="6.84765">
        <ele>85.69412</ele>
        <time>2023-04-28T11:19:30.000Z</time>
      </trkpt>
      <trkpt lat="43.46764" lon="6.84779">
        <ele>85.31867</ele>
        <time>2023-04-28T11:19:42.000Z</time>
      </trkpt>
      <trkpt lat="43.46873" lon="6.84789">
        <ele>87.81916</ele>
        <time>2023-04-28T11:20:04.000Z</time>
      </trkpt>
      <trkpt lat="43.46908" lon="6.84761">
        <ele>88.03101</ele>
        <time>2023-04-28T11:20:12.000Z</time>
      </trkpt>
      <trkpt lat="43.46969" lon="6.84678">
        <ele>90.52342</ele>
        <time>2023-04-28T11:20:29.000Z</time>
      </trkpt>
      <trkpt lat="43.47031" lon="6.84637">
        <ele>92.42416</ele>
        <time>2023-04-28T11:20:43.000Z</time>
      </trkpt>
      <trkpt lat="43.47074" lon="6.8463">
        <ele>93.25853</ele>
        <time>2023-04-28T11:20:52.000Z</time>
      </trkpt>
      <trkpt lat="43.4708" lon="6.84613">
        <ele>94.59972</ele>
        <time>2023-04-28T11:20:55.000Z</time>
      </trkpt>
      <trkpt lat="43.47074" lon="6.84587">
        <ele>94.86315</ele>
        <time>2023-04-28T11:20:59.000Z</time>
      </trkpt>
      <trkpt lat="43.46991" lon="6.84407">
        <ele>97.22207</ele>
        <time>2023-04-28T11:21:30.000Z</time>
      </trkpt>
      <trkpt lat="43.4698" lon="6.84393">
        <ele>97.51161</ele>
        <time>2023-04-28T11:21:33.000Z</time>
      </trkpt>
      <trkpt lat="43.4695" lon="6.84387">
        <ele>98.69497</ele>
        <time>2023-04-28T11:21:39.000Z</time>
      </trkpt>
      <trkpt lat="43.46936" lon="6.84372">
        <ele>98.61011</ele>
        <time>2023-04-28T11:21:43.000Z</time>
      </trkpt>
      <trkpt lat="43.46941" lon="6.84348">
        <ele>98.53209</ele>
        <time>2023-04-28T11:21:47.000Z</time>
      </trkpt>
      <trkpt lat="43.4698" lon="6.84297">
        <ele>96.16756</ele>
        <time>2023-04-28T11:21:56.000Z</time>
      </trkpt>
      <trkpt lat="43.46993" lon="6.84231">
        <ele>94.71147</ele>
        <time>2023-04-28T11:22:03.000Z</time>
      </trkpt>
      <trkpt lat="43.46972" lon="6.84147">
        <ele>91.86866</ele>
        <time>2023-04-28T11:22:12.000Z</time>
      </trkpt>
      <trkpt lat="43.46946" lon="6.84096">
        <ele>89.9215</ele>
        <time>2023-04-28T11:22:19.000Z</time>
      </trkpt>
      <trkpt lat="43.46943" lon="6.84052">
        <ele>87.68062</ele>
        <time>2023-04-28T11:22:29.000Z</time>
      </trkpt>
      <trkpt lat="43.46978" lon="6.84032">
        <ele>86.43176</ele>
        <time>2023-04-28T11:22:39.000Z</time>
      </trkpt>
      <trkpt lat="43.4702" lon="6.84051">
        <ele>84.35516</ele>
        <time>2023-04-28T11:22:47.000Z</time>
      </trkpt>
      <trkpt lat="43.47038" lon="6.8405">
        <ele>86.37045</ele>
        <time>2023-04-28T11:22:50.000Z</time>
      </trkpt>
      <trkpt lat="43.47117" lon="6.83992">
        <ele>81.79025</ele>
        <time>2023-04-28T11:23:04.000Z</time>
      </trkpt>
      <trkpt lat="43.47172" lon="6.83965">
        <ele>80.11216</ele>
        <time>2023-04-28T11:23:13.000Z</time>
      </trkpt>
      <trkpt lat="43.47235" lon="6.83897">
        <ele>76.74228</ele>
        <time>2023-04-28T11:23:25.000Z</time>
      </trkpt>
      <trkpt lat="43.47267" lon="6.83885">
        <ele>76.82893</ele>
        <time>2023-04-28T11:23:30.000Z</time>
      </trkpt>
      <trkpt lat="43.47277" lon="6.83859">
        <ele>74.71529</ele>
        <time>2023-04-28T11:23:34.000Z</time>
      </trkpt>
      <trkpt lat="43.47245" lon="6.83818">
        <ele>77.67438</ele>
        <time>2023-04-28T11:23:43.000Z</time>
      </trkpt>
      <trkpt lat="43.47245" lon="6.83787">
        <ele>78.28169</ele>
        <time>2023-04-28T11:23:48.000Z</time>
      </trkpt>
      <trkpt lat="43.47259" lon="6.83772">
        <ele>77.56382</ele>
        <time>2023-04-28T11:23:52.000Z</time>
      </trkpt>
      <trkpt lat="43.47297" lon="6.83764">
        <ele>79.86086</ele>
        <time>2023-04-28T11:24:00.000Z</time>
      </trkpt>
      <trkpt lat="43.47315" lon="6.83743">
        <ele>81.62413</ele>
        <time>2023-04-28T11:24:05.000Z</time>
      </trkpt>
      <trkpt lat="43.47325" lon="6.83709">
        <ele>82.64225</ele>
        <time>2023-04-28T11:24:10.000Z</time>
      </trkpt>
      <trkpt lat="43.47333" lon="6.83639">
        <ele>81.23971</ele>
        <time>2023-04-28T11:24:19.000Z</time>
      </trkpt>
      <trkpt lat="43.47379" lon="6.83544">
        <ele>83.15788</ele>
        <time>2023-04-28T11:24:34.000Z</time>
      </trkpt>
      <trkpt lat="43.47405" lon="6.83515">
        <ele>82.95628</ele>
        <time>2023-04-28T11:24:40.000Z</time>
      </trkpt>
      <trkpt lat="43.47428" lon="6.83505">
        <ele>82.83211</ele>
        <time>2023-04-28T11:24:44.000Z</time>
      </trkpt>
      <trkpt lat="43.47475" lon="6.83508">
        <ele>82.12171</ele>
        <time>2023-04-28T11:24:52.000Z</time>
      </trkpt>
      <trkpt lat="43.47516" lon="6.83463">
        <ele>82.14824</ele>
        <time>2023-04-28T11:25:01.000Z</time>
      </trkpt>
      <trkpt lat="43.47527" lon="6.83438">
        <ele>81.65834</ele>
        <time>2023-04-28T11:25:05.000Z</time>
      </trkpt>
      <trkpt lat="43.47525" lon="6.83411">
        <ele>81.8851</ele>
        <time>2023-04-28T11:25:09.000Z</time>
      </trkpt>
      <trkpt lat="43.47483" lon="6.83382">
        <ele>84.67542</ele>
        <time>2023-04-28T11:25:17.000Z</time>
      </trkpt>
      <trkpt lat="43.47473" lon="6.83355">
        <ele>86.51689</ele>
        <time>2023-04-28T11:25:21.000Z</time>
      </trkpt>
      <trkpt lat="43.47493" lon="6.83278">
        <ele>89.40049</ele>
        <time>2023-04-28T11:25:33.000Z</time>
      </trkpt>
      <trkpt lat="43.47487" lon="6.83223">
        <ele>92.43974</ele>
        <time>2023-04-28T11:25:43.000Z</time>
      </trkpt>
      <trkpt lat="43.47494" lon="6.83146">
        <ele>95.0598</ele>
        <time>2023-04-28T11:25:56.000Z</time>
      </trkpt>
      <trkpt lat="43.47485" lon="6.83039">
        <ele>92.48846</ele>
        <time>2023-04-28T11:26:11.000Z</time>
      </trkpt>
      <trkpt lat="43.47444" lon="6.82982">
        <ele>91.04633</ele>
        <time>2023-04-28T11:26:22.000Z</time>
      </trkpt>
      <trkpt lat="43.47425" lon="6.8297">
        <ele>90.52082</ele>
        <time>2023-04-28T11:26:26.000Z</time>
      </trkpt>
      <trkpt lat="43.4738" lon="6.83015">
        <ele>91.91665</ele>
        <time>2023-04-28T11:26:37.000Z</time>
      </trkpt>
      <trkpt lat="43.47364" lon="6.83019">
        <ele>92.13402</ele>
        <time>2023-04-28T11:26:40.000Z</time>
      </trkpt>
      <trkpt lat="43.47343" lon="6.83008">
        <ele>91.93023</ele>
        <time>2023-04-28T11:26:44.000Z</time>
      </trkpt>
      <trkpt lat="43.47334" lon="6.82991">
        <ele>90.18345</ele>
        <time>2023-04-28T11:26:47.000Z</time>
      </trkpt>
      <trkpt lat="43.47318" lon="6.82919">
        <ele>87.27913</ele>
        <time>2023-04-28T11:26:56.000Z</time>
      </trkpt>
      <trkpt lat="43.47283" lon="6.82889">
        <ele>86.7501</ele>
        <time>2023-04-28T11:27:03.000Z</time>
      </trkpt>
      <trkpt lat="43.47267" lon="6.82863">
        <ele>86.55028</ele>
        <time>2023-04-28T11:27:07.000Z</time>
      </trkpt>
      <trkpt lat="43.4724" lon="6.82779">
        <ele>85.852</ele>
        <time>2023-04-28T11:27:18.000Z</time>
      </trkpt>
      <trkpt lat="43.47236" lon="6.82744">
        <ele>85.08084</ele>
        <time>2023-04-28T11:27:22.000Z</time>
      </trkpt>
      <trkpt lat="43.47244" lon="6.82627">
        <ele>82.57105</ele>
        <time>2023-04-28T11:27:35.000Z</time>
      </trkpt>
      <trkpt lat="43.47264" lon="6.8258">
        <ele>81.41963</ele>
        <time>2023-04-28T11:27:41.000Z</time>
      </trkpt>
      <trkpt lat="43.47267" lon="6.82518">
        <ele>80.59171</ele>
        <time>2023-04-28T11:27:48.000Z</time>
      </trkpt>
      <trkpt lat="43.47303" lon="6.82381">
        <ele>74.49431</ele>
        <time>2023-04-28T11:28:03.000Z</time>
      </trkpt>
      <trkpt lat="43.47325" lon="6.82213">
        <ele>74.92678</ele>
        <time>2023-04-28T11:28:21.000Z</time>
      </trkpt>
      <trkpt lat="43.47346" lon="6.82165">
        <ele>74.00886</ele>
        <time>2023-04-28T11:28:27.000Z</time>
      </trkpt>
      <trkpt lat="43.4738" lon="6.82117">
        <ele>73.0006</ele>
        <time>2023-04-28T11:28:35.000Z</time>
      </trkpt>
      <trkpt lat="43.47398" lon="6.82044">
        <ele>76.41957</ele>
        <time>2023-04-28T11:28:46.000Z</time>
      </trkpt>
      <trkpt lat="43.47397" lon="6.81827">
        <ele>78.45981</ele>
        <time>2023-04-28T11:29:17.000Z</time>
      </trkpt>
      <trkpt lat="43.4743" lon="6.81756">
        <ele>81.90112</ele>
        <time>2023-04-28T11:29:29.000Z</time>
      </trkpt>
      <trkpt lat="43.47489" lon="6.8166">
        <ele>84.2482</ele>
        <time>2023-04-28T11:29:48.000Z</time>
      </trkpt>
      <trkpt lat="43.47534" lon="6.81616">
        <ele>86.11991</ele>
        <time>2023-04-28T11:29:59.000Z</time>
      </trkpt>
      <trkpt lat="43.47591" lon="6.81517">
        <ele>90.15346</ele>
        <time>2023-04-28T11:30:18.000Z</time>
      </trkpt>
      <trkpt lat="43.47595" lon="6.81453">
        <ele>91.03077</ele>
        <time>2023-04-28T11:30:31.000Z</time>
      </trkpt>
      <trkpt lat="43.47662" lon="6.8127">
        <ele>98.39566</ele>
        <time>2023-04-28T11:31:09.000Z</time>
      </trkpt>
      <trkpt lat="43.47811" lon="6.8114">
        <ele>102.3628</ele>
        <time>2023-04-28T11:31:48.000Z</time>
      </trkpt>
      <trkpt lat="43.47857" lon="6.81124">
        <ele>102.17257</ele>
        <time>2023-04-28T11:31:58.000Z</time>
      </trkpt>
      <trkpt lat="43.4791" lon="6.81075">
        <ele>104.49485</ele>
        <time>2023-04-28T11:32:15.000Z</time>
      </trkpt>
      <trkpt lat="43.47921" lon="6.81077">
        <ele>104.81287</ele>
        <time>2023-04-28T11:32:34.000Z</time>
      </trkpt>
      <trkpt lat="43.47937" lon="6.81042">
        <ele>108.05207</ele>
        <time>2023-04-28T11:33:19.000Z</time>
      </trkpt>
      <trkpt lat="43.47964" lon="6.8101">
        <ele>109.18217</ele>
        <time>2023-04-28T11:33:30.000Z</time>
      </trkpt>
      <trkpt lat="43.4811" lon="6.80899">
        <ele>116.16293</ele>
        <time>2023-04-28T11:34:11.000Z</time>
      </trkpt>
      <trkpt lat="43.48191" lon="6.80799">
        <ele>120.40607</ele>
        <time>2023-04-28T11:34:36.000Z</time>
      </trkpt>
      <trkpt lat="43.48255" lon="6.80753">
        <ele>123.97271</ele>
        <time>2023-04-28T11:34:56.000Z</time>
      </trkpt>
      <trkpt lat="43.48294" lon="6.80756">
        <ele>123.38293</ele>
        <time>2023-04-28T11:35:09.000Z</time>
      </trkpt>
      <trkpt lat="43.48289" lon="6.8073">
        <ele>123.74143</ele>
        <time>2023-04-28T11:35:15.000Z</time>
      </trkpt>
      <trkpt lat="43.48274" lon="6.80711">
        <ele>125.07459</ele>
        <time>2023-04-28T11:35:22.000Z</time>
      </trkpt>
      <trkpt lat="43.48231" lon="6.80689">
        <ele>128.92413</ele>
        <time>2023-04-28T11:35:40.000Z</time>
      </trkpt>
      <trkpt lat="43.48234" lon="6.80658">
        <ele>133.73257</ele>
        <time>2023-04-28T11:36:11.000Z</time>
      </trkpt>
      <trkpt lat="43.48227" lon="6.80581">
        <ele>140.43993</ele>
        <time>2023-04-28T11:36:33.000Z</time>
      </trkpt>
      <trkpt lat="43.48233" lon="6.80523">
        <ele>145.49281</ele>
        <time>2023-04-28T11:36:50.000Z</time>
      </trkpt>
      <trkpt lat="43.48247" lon="6.80473">
        <ele>151.41724</ele>
        <time>2023-04-28T11:37:32.000Z</time>
      </trkpt>
      <trkpt lat="43.48242" lon="6.80424">
        <ele>149.80103</ele>
        <time>2023-04-28T11:37:44.000Z</time>
      </trkpt>
      <trkpt lat="43.48236" lon="6.80424">
        <ele>149.08032</ele>
        <time>2023-04-28T11:37:47.000Z</time>
      </trkpt>
      <trkpt lat="43.48219" lon="6.8046">
        <ele>151.81573</ele>
        <time>2023-04-28T11:37:59.000Z</time>
      </trkpt>
      <trkpt lat="43.48193" lon="6.80473">
        <ele>156.32092</ele>
        <time>2023-04-28T11:38:10.000Z</time>
      </trkpt>
      <trkpt lat="43.48134" lon="6.80528">
        <ele>164.05754</ele>
        <time>2023-04-28T11:38:38.000Z</time>
      </trkpt>
      <trkpt lat="43.48117" lon="6.80534">
        <ele>167.10333</ele>
        <time>2023-04-28T11:38:45.000Z</time>
      </trkpt>
      <trkpt lat="43.48096" lon="6.80578">
        <ele>170.62596</ele>
        <time>2023-04-28T11:39:00.000Z</time>
      </trkpt>
      <trkpt lat="43.4807" lon="6.80591">
        <ele>175.20792</ele>
        <time>2023-04-28T11:39:13.000Z</time>
      </trkpt>
      <trkpt lat="43.48083" lon="6.80562">
        <ele>177.1643</ele>
        <time>2023-04-28T11:39:25.000Z</time>
      </trkpt>
      <trkpt lat="43.48083" lon="6.80528">
        <ele>181.81771</ele>
        <time>2023-04-28T11:39:37.000Z</time>
      </trkpt>
      <trkpt lat="43.4809" lon="6.80511">
        <ele>183.34131</ele>
        <time>2023-04-28T11:39:43.000Z</time>
      </trkpt>
      <trkpt lat="43.4811" lon="6.80478">
        <ele>187.22748</ele>
        <time>2023-04-28T11:39:58.000Z</time>
      </trkpt>
      <trkpt lat="43.48134" lon="6.80409">
        <ele>194.97817</ele>
        <time>2023-04-28T11:40:21.000Z</time>
      </trkpt>
      <trkpt lat="43.48148" lon="6.80391">
        <ele>197.7605</ele>
        <time>2023-04-28T11:40:29.000Z</time>
      </trkpt>
      <trkpt lat="43.48153" lon="6.80344">
        <ele>201.58531</ele>
        <time>2023-04-28T11:40:44.000Z</time>
      </trkpt>
      <trkpt lat="43.48127" lon="6.80289">
        <ele>209.29133</ele>
        <time>2023-04-28T11:41:05.000Z</time>
      </trkpt>
      <trkpt lat="43.4809" lon="6.80241">
        <ele>217.14429</ele>
        <time>2023-04-28T11:41:26.000Z</time>
      </trkpt>
      <trkpt lat="43.48069" lon="6.80199">
        <ele>220.70689</ele>
        <time>2023-04-28T11:41:41.000Z</time>
      </trkpt>
      <trkpt lat="43.48055" lon="6.80117">
        <ele>229.98564</ele>
        <time>2023-04-28T11:42:06.000Z</time>
      </trkpt>
      <trkpt lat="43.48042" lon="6.79971">
        <ele>244.33498</ele>
        <time>2023-04-28T11:42:51.000Z</time>
      </trkpt>
      <trkpt lat="43.4805" lon="6.79918">
        <ele>250.21892</ele>
        <time>2023-04-28T11:43:08.000Z</time>
      </trkpt>
      <trkpt lat="43.48046" lon="6.79903">
        <ele>250.64862</ele>
        <time>2023-04-28T11:43:16.000Z</time>
      </trkpt>
      <trkpt lat="43.48087" lon="6.79842">
        <ele>247.1624</ele>
        <time>2023-04-28T11:50:41.000Z</time>
      </trkpt>
      <trkpt lat="43.48118" lon="6.79765">
        <ele>244.05907</ele>
        <time>2023-04-28T11:50:51.000Z</time>
      </trkpt>
      <trkpt lat="43.48119" lon="6.79739">
        <ele>243.47938</ele>
        <time>2023-04-28T11:50:54.000Z</time>
      </trkpt>
      <trkpt lat="43.48088" lon="6.79634">
        <ele>236.42615</ele>
        <time>2023-04-28T11:51:07.000Z</time>
      </trkpt>
      <trkpt lat="43.4809" lon="6.79589">
        <ele>234.00181</ele>
        <time>2023-04-28T11:51:12.000Z</time>
      </trkpt>
      <trkpt lat="43.48098" lon="6.79565">
        <ele>231.91433</ele>
        <time>2023-04-28T11:51:15.000Z</time>
      </trkpt>
      <trkpt lat="43.48123" lon="6.79533">
        <ele>229.48759</ele>
        <time>2023-04-28T11:51:20.000Z</time>
      </trkpt>
      <trkpt lat="43.48231" lon="6.79454">
        <ele>221.82761</ele>
        <time>2023-04-28T11:51:36.000Z</time>
      </trkpt>
      <trkpt lat="43.4829" lon="6.79438">
        <ele>218.27656</ele>
        <time>2023-04-28T11:51:47.000Z</time>
      </trkpt>
      <trkpt lat="43.4834" lon="6.7946">
        <ele>214.86478</ele>
        <time>2023-04-28T11:51:59.000Z</time>
      </trkpt>
      <trkpt lat="43.4833" lon="6.79459">
        <ele>215.86581</ele>
        <time>2023-04-28T11:52:11.000Z</time>
      </trkpt>
      <trkpt lat="43.4833" lon="6.79459">
        <ele>215.86581</ele>
        <time>2023-04-28T11:52:11.000Z</time>
      </trkpt>
      <trkpt lat="43.48345" lon="6.79454">
        <ele>214.47053</ele>
        <time>2023-04-28T11:52:54.000Z</time>
      </trkpt>
      <trkpt lat="43.48345" lon="6.79437">
        <ele>215.23318</ele>
        <time>2023-04-28T11:53:04.000Z</time>
      </trkpt>
      <trkpt lat="43.48328" lon="6.79384">
        <ele>212.80738</ele>
        <time>2023-04-28T11:53:13.000Z</time>
      </trkpt>
      <trkpt lat="43.483" lon="6.79347">
        <ele>207.43646</ele>
        <time>2023-04-28T11:53:20.000Z</time>
      </trkpt>
      <trkpt lat="43.48296" lon="6.79302">
        <ele>204.78839</ele>
        <time>2023-04-28T11:53:26.000Z</time>
      </trkpt>
      <trkpt lat="43.48221" lon="6.79342">
        <ele>199.88641</ele>
        <time>2023-04-28T11:53:43.000Z</time>
      </trkpt>
      <trkpt lat="43.48138" lon="6.79301">
        <ele>194.89581</ele>
        <time>2023-04-28T11:53:57.000Z</time>
      </trkpt>
      <trkpt lat="43.48105" lon="6.79316">
        <ele>192.36904</ele>
        <time>2023-04-28T11:54:04.000Z</time>
      </trkpt>
      <trkpt lat="43.48068" lon="6.79291">
        <ele>191.79671</ele>
        <time>2023-04-28T11:54:13.000Z</time>
      </trkpt>
      <trkpt lat="43.48046" lon="6.79314">
        <ele>188.12847</ele>
        <time>2023-04-28T11:54:19.000Z</time>
      </trkpt>
      <trkpt lat="43.47979" lon="6.7932">
        <ele>185.18635</ele>
        <time>2023-04-28T11:54:36.000Z</time>
      </trkpt>
      <trkpt lat="43.47788" lon="6.79408">
        <ele>178.45248</ele>
        <time>2023-04-28T11:55:37.000Z</time>
      </trkpt>
      <trkpt lat="43.4773" lon="6.79411">
        <ele>177.83138</ele>
        <time>2023-04-28T11:55:49.000Z</time>
      </trkpt>
      <trkpt lat="43.4769" lon="6.79389">
        <ele>177.07252</ele>
        <time>2023-04-28T11:55:57.000Z</time>
      </trkpt>
      <trkpt lat="43.47664" lon="6.79393">
        <ele>177.09217</ele>
        <time>2023-04-28T11:56:02.000Z</time>
      </trkpt>
      <trkpt lat="43.47516" lon="6.79518">
        <ele>170.97493</ele>
        <time>2023-04-28T11:56:30.000Z</time>
      </trkpt>
      <trkpt lat="43.47477" lon="6.79599">
        <ele>168.55857</ele>
        <time>2023-04-28T11:56:42.000Z</time>
      </trkpt>
      <trkpt lat="43.4746" lon="6.79619">
        <ele>167.50681</ele>
        <time>2023-04-28T11:56:46.000Z</time>
      </trkpt>
      <trkpt lat="43.47409" lon="6.79638">
        <ele>166.15711</ele>
        <time>2023-04-28T11:56:56.000Z</time>
      </trkpt>
      <trkpt lat="43.47378" lon="6.79636">
        <ele>164.57855</ele>
        <time>2023-04-28T11:57:03.000Z</time>
      </trkpt>
      <trkpt lat="43.47351" lon="6.79621">
        <ele>164.96785</ele>
        <time>2023-04-28T11:57:08.000Z</time>
      </trkpt>
      <trkpt lat="43.47333" lon="6.79595">
        <ele>164.6012</ele>
        <time>2023-04-28T11:57:17.000Z</time>
      </trkpt>
      <trkpt lat="43.47323" lon="6.7952">
        <ele>163.54915</ele>
        <time>2023-04-28T11:58:28.000Z</time>
      </trkpt>
      <trkpt lat="43.47307" lon="6.7946">
        <ele>163.45358</ele>
        <time>2023-04-28T11:58:38.000Z</time>
      </trkpt>
      <trkpt lat="43.4731" lon="6.79336">
        <ele>159.55249</ele>
        <time>2023-04-28T11:58:54.000Z</time>
      </trkpt>
      <trkpt lat="43.4729" lon="6.79305">
        <ele>158.33522</ele>
        <time>2023-04-28T11:58:59.000Z</time>
      </trkpt>
      <trkpt lat="43.47261" lon="6.79294">
        <ele>156.84598</ele>
        <time>2023-04-28T11:59:04.000Z</time>
      </trkpt>
      <trkpt lat="43.47232" lon="6.79306">
        <ele>155.80209</ele>
        <time>2023-04-28T11:59:09.000Z</time>
      </trkpt>
      <trkpt lat="43.47195" lon="6.79342">
        <ele>151.58791</ele>
        <time>2023-04-28T11:59:17.000Z</time>
      </trkpt>
      <trkpt lat="43.47155" lon="6.79536">
        <ele>141.75262</ele>
        <time>2023-04-28T11:59:36.000Z</time>
      </trkpt>
      <trkpt lat="43.47142" lon="6.79573">
        <ele>139.81496</ele>
        <time>2023-04-28T11:59:41.000Z</time>
      </trkpt>
      <trkpt lat="43.47113" lon="6.79593">
        <ele>138.41909</ele>
        <time>2023-04-28T11:59:49.000Z</time>
      </trkpt>
      <trkpt lat="43.47067" lon="6.79589">
        <ele>136.63432</ele>
        <time>2023-04-28T11:59:57.000Z</time>
      </trkpt>
      <trkpt lat="43.47044" lon="6.79574">
        <ele>135.94098</ele>
        <time>2023-04-28T12:00:02.000Z</time>
      </trkpt>
      <trkpt lat="43.4704" lon="6.79552">
        <ele>135.03768</ele>
        <time>2023-04-28T12:00:06.000Z</time>
      </trkpt>
      <trkpt lat="43.47076" lon="6.79457">
        <ele>130.63417</ele>
        <time>2023-04-28T12:00:21.000Z</time>
      </trkpt>
      <trkpt lat="43.47078" lon="6.79442">
        <ele>129.94984</ele>
        <time>2023-04-28T12:00:23.000Z</time>
      </trkpt>
      <trkpt lat="43.47072" lon="6.79429">
        <ele>129.07977</ele>
        <time>2023-04-28T12:00:26.000Z</time>
      </trkpt>
      <trkpt lat="43.46931" lon="6.79499">
        <ele>118.19444</ele>
        <time>2023-04-28T12:00:55.000Z</time>
      </trkpt>
      <trkpt lat="43.46916" lon="6.79495">
        <ele>119.0245</ele>
        <time>2023-04-28T12:01:00.000Z</time>
      </trkpt>
      <trkpt lat="43.46922" lon="6.7943">
        <ele>118.34711</ele>
        <time>2023-04-28T12:01:11.000Z</time>
      </trkpt>
      <trkpt lat="43.46938" lon="6.7937">
        <ele>116.7896</ele>
        <time>2023-04-28T12:01:21.000Z</time>
      </trkpt>
      <trkpt lat="43.46923" lon="6.79344">
        <ele>117.15177</ele>
        <time>2023-04-28T12:01:27.000Z</time>
      </trkpt>
      <trkpt lat="43.46958" lon="6.79267">
        <ele>115.37476</ele>
        <time>2023-04-28T12:01:42.000Z</time>
      </trkpt>
      <trkpt lat="43.46959" lon="6.79247">
        <ele>115.89232</ele>
        <time>2023-04-28T12:01:46.000Z</time>
      </trkpt>
      <trkpt lat="43.46946" lon="6.79243">
        <ele>115.5585</ele>
        <time>2023-04-28T12:01:49.000Z</time>
      </trkpt>
      <trkpt lat="43.46859" lon="6.79269">
        <ele>112.02697</ele>
        <time>2023-04-28T12:02:09.000Z</time>
      </trkpt>
      <trkpt lat="43.46826" lon="6.79256">
        <ele>111.3539</ele>
        <time>2023-04-28T12:02:18.000Z</time>
      </trkpt>
      <trkpt lat="43.46781" lon="6.79176">
        <ele>110.32009</ele>
        <time>2023-04-28T12:02:35.000Z</time>
      </trkpt>
      <trkpt lat="43.46762" lon="6.79148">
        <ele>109.32009</ele>
        <time>2023-04-28T12:02:41.000Z</time>
      </trkpt>
      <trkpt lat="43.46757" lon="6.7915">
        <ele>109.53423</ele>
        <time>2023-04-28T12:02:51.000Z</time>
      </trkpt>
      <trkpt lat="43.4676" lon="6.79134">
        <ele>109.43753</ele>
        <time>2023-04-28T12:03:03.000Z</time>
      </trkpt>
      <trkpt lat="43.4676" lon="6.79134">
        <ele>109.43753</ele>
        <time>2023-04-28T12:03:03.000Z</time>
      </trkpt>
      <trkpt lat="43.46755" lon="6.79094">
        <ele>109.08664</ele>
        <time>2023-04-28T12:03:11.000Z</time>
      </trkpt>
      <trkpt lat="43.46741" lon="6.79072">
        <ele>109.15006</ele>
        <time>2023-04-28T12:03:17.000Z</time>
      </trkpt>
      <trkpt lat="43.46735" lon="6.79088">
        <ele>109.15069</ele>
        <time>2023-04-28T12:03:21.000Z</time>
      </trkpt>
      <trkpt lat="43.46733" lon="6.79136">
        <ele>108.2629</ele>
        <time>2023-04-28T12:03:28.000Z</time>
      </trkpt>
      <trkpt lat="43.4674" lon="6.79184">
        <ele>106.92789</ele>
        <time>2023-04-28T12:03:35.000Z</time>
      </trkpt>
      <trkpt lat="43.46731" lon="6.79202">
        <ele>105.63608</ele>
        <time>2023-04-28T12:03:38.000Z</time>
      </trkpt>
      <trkpt lat="43.46698" lon="6.79227">
        <ele>104.79227</ele>
        <time>2023-04-28T12:03:45.000Z</time>
      </trkpt>
      <trkpt lat="43.46695" lon="6.79246">
        <ele>103.89088</ele>
        <time>2023-04-28T12:03:48.000Z</time>
      </trkpt>
      <trkpt lat="43.46711" lon="6.79263">
        <ele>101.70097</ele>
        <time>2023-04-28T12:03:52.000Z</time>
      </trkpt>
      <trkpt lat="43.46784" lon="6.79285">
        <ele>98.53962</ele>
        <time>2023-04-28T12:04:04.000Z</time>
      </trkpt>
      <trkpt lat="43.46825" lon="6.79309">
        <ele>98.61536</ele>
        <time>2023-04-28T12:04:11.000Z</time>
      </trkpt>
      <trkpt lat="43.46834" lon="6.79324">
        <ele>96.69416</ele>
        <time>2023-04-28T12:04:14.000Z</time>
      </trkpt>
      <trkpt lat="43.46833" lon="6.79336">
        <ele>95.55623</ele>
        <time>2023-04-28T12:04:16.000Z</time>
      </trkpt>
      <trkpt lat="43.46822" lon="6.79344">
        <ele>96.25893</ele>
        <time>2023-04-28T12:04:19.000Z</time>
      </trkpt>
      <trkpt lat="43.46763" lon="6.7933">
        <ele>94.88989</ele>
        <time>2023-04-28T12:04:31.000Z</time>
      </trkpt>
      <trkpt lat="43.46704" lon="6.79332">
        <ele>93.77394</ele>
        <time>2023-04-28T12:04:42.000Z</time>
      </trkpt>
      <trkpt lat="43.4664" lon="6.79315">
        <ele>92.64923</ele>
        <time>2023-04-28T12:04:55.000Z</time>
      </trkpt>
      <trkpt lat="43.46621" lon="6.79322">
        <ele>92.58841</ele>
        <time>2023-04-28T12:04:59.000Z</time>
      </trkpt>
      <trkpt lat="43.46609" lon="6.79345">
        <ele>92.33384</ele>
        <time>2023-04-28T12:05:03.000Z</time>
      </trkpt>
      <trkpt lat="43.46609" lon="6.79375">
        <ele>93.10233</ele>
        <time>2023-04-28T12:05:07.000Z</time>
      </trkpt>
      <trkpt lat="43.46636" lon="6.79441">
        <ele>92.3595</ele>
        <time>2023-04-28T12:05:17.000Z</time>
      </trkpt>
      <trkpt lat="43.4661" lon="6.79504">
        <ele>91.43525</ele>
        <time>2023-04-28T12:05:27.000Z</time>
      </trkpt>
      <trkpt lat="43.46608" lon="6.79536">
        <ele>94.16741</ele>
        <time>2023-04-28T12:05:32.000Z</time>
      </trkpt>
      <trkpt lat="43.46631" lon="6.79569">
        <ele>90.4394</ele>
        <time>2023-04-28T12:05:39.000Z</time>
      </trkpt>
      <trkpt lat="43.46682" lon="6.79607">
        <ele>85.44487</ele>
        <time>2023-04-28T12:05:48.000Z</time>
      </trkpt>
      <trkpt lat="43.46697" lon="6.79666">
        <ele>85.75647</ele>
        <time>2023-04-28T12:05:56.000Z</time>
      </trkpt>
      <trkpt lat="43.46729" lon="6.79705">
        <ele>83.9612</ele>
        <time>2023-04-28T12:06:03.000Z</time>
      </trkpt>
      <trkpt lat="43.46775" lon="6.79721">
        <ele>82.94563</ele>
        <time>2023-04-28T12:06:11.000Z</time>
      </trkpt>
      <trkpt lat="43.46838" lon="6.79728">
        <ele>85.02566</ele>
        <time>2023-04-28T12:06:23.000Z</time>
      </trkpt>
      <trkpt lat="43.46862" lon="6.79743">
        <ele>82.85286</ele>
        <time>2023-04-28T12:06:29.000Z</time>
      </trkpt>
      <trkpt lat="43.4686" lon="6.79777">
        <ele>84.30731</ele>
        <time>2023-04-28T12:06:35.000Z</time>
      </trkpt>
      <trkpt lat="43.46815" lon="6.79818">
        <ele>86.68491</ele>
        <time>2023-04-28T12:06:49.000Z</time>
      </trkpt>
      <trkpt lat="43.46788" lon="6.7987">
        <ele>86.99103</ele>
        <time>2023-04-28T12:07:00.000Z</time>
      </trkpt>
      <trkpt lat="43.46753" lon="6.79901">
        <ele>88.12356</ele>
        <time>2023-04-28T12:07:11.000Z</time>
      </trkpt>
      <trkpt lat="43.46749" lon="6.79922">
        <ele>89.77613</ele>
        <time>2023-04-28T12:07:15.000Z</time>
      </trkpt>
      <trkpt lat="43.46754" lon="6.79946">
        <ele>90.83937</ele>
        <time>2023-04-28T12:07:19.000Z</time>
      </trkpt>
      <trkpt lat="43.4678" lon="6.80008">
        <ele>93.28985</ele>
        <time>2023-04-28T12:07:31.000Z</time>
      </trkpt>
      <trkpt lat="43.46807" lon="6.8004">
        <ele>91.8403</ele>
        <time>2023-04-28T12:07:39.000Z</time>
      </trkpt>
      <trkpt lat="43.46927" lon="6.80081">
        <ele>95.53466</ele>
        <time>2023-04-28T12:08:03.000Z</time>
      </trkpt>
      <trkpt lat="43.4698" lon="6.80086">
        <ele>95.97392</ele>
        <time>2023-04-28T12:08:16.000Z</time>
      </trkpt>
      <trkpt lat="43.47003" lon="6.8016">
        <ele>91.87548</ele>
        <time>2023-04-28T12:08:28.000Z</time>
      </trkpt>
      <trkpt lat="43.47038" lon="6.8019">
        <ele>89.16189</ele>
        <time>2023-04-28T12:08:35.000Z</time>
      </trkpt>
      <trkpt lat="43.47042" lon="6.80203">
        <ele>87.10811</ele>
        <time>2023-04-28T12:08:37.000Z</time>
      </trkpt>
      <trkpt lat="43.47033" lon="6.80256">
        <ele>85.36876</ele>
        <time>2023-04-28T12:08:44.000Z</time>
      </trkpt>
      <trkpt lat="43.47043" lon="6.80309">
        <ele>82.22907</ele>
        <time>2023-04-28T12:08:51.000Z</time>
      </trkpt>
      <trkpt lat="43.47033" lon="6.80362">
        <ele>79.84737</ele>
        <time>2023-04-28T12:09:00.000Z</time>
      </trkpt>
      <trkpt lat="43.4704" lon="6.80399">
        <ele>78.15312</ele>
        <time>2023-04-28T12:09:11.000Z</time>
      </trkpt>
      <trkpt lat="43.47071" lon="6.80444">
        <ele>79.01007</ele>
        <time>2023-04-28T12:09:37.000Z</time>
      </trkpt>
      <trkpt lat="43.4707" lon="6.805">
        <ele>76.88427</ele>
        <time>2023-04-28T12:13:18.000Z</time>
      </trkpt>
      <trkpt lat="43.47061" lon="6.80524">
        <ele>77.2264</ele>
        <time>2023-04-28T12:13:23.000Z</time>
      </trkpt>
      <trkpt lat="43.47045" lon="6.80547">
        <ele>76.95765</ele>
        <time>2023-04-28T12:13:29.000Z</time>
      </trkpt>
      <trkpt lat="43.47009" lon="6.80577">
        <ele>74.96438</ele>
        <time>2023-04-28T12:13:39.000Z</time>
      </trkpt>
      <trkpt lat="43.46983" lon="6.80615">
        <ele>68.75151</ele>
        <time>2023-04-28T12:13:51.000Z</time>
      </trkpt>
      <trkpt lat="43.46986" lon="6.80696">
        <ele>71.80937</ele>
        <time>2023-04-28T12:14:08.000Z</time>
      </trkpt>
      <trkpt lat="43.46917" lon="6.80757">
        <ele>69.07061</ele>
        <time>2023-04-28T12:14:33.000Z</time>
      </trkpt>
      <trkpt lat="43.46922" lon="6.80832">
        <ele>69.34318</ele>
        <time>2023-04-28T12:14:46.000Z</time>
      </trkpt>
      <trkpt lat="43.46896" lon="6.80903">
        <ele>69.55246</ele>
        <time>2023-04-28T12:14:59.000Z</time>
      </trkpt>
      <trkpt lat="43.4689" lon="6.80973">
        <ele>68.63843</ele>
        <time>2023-04-28T12:15:10.000Z</time>
      </trkpt>
      <trkpt lat="43.46878" lon="6.81013">
        <ele>71.24589</ele>
        <time>2023-04-28T12:15:17.000Z</time>
      </trkpt>
      <trkpt lat="43.46924" lon="6.81368">
        <ele>83.16785</ele>
        <time>2023-04-28T12:16:23.000Z</time>
      </trkpt>
      <trkpt lat="43.46901" lon="6.81536">
        <ele>79.88149</ele>
        <time>2023-04-28T12:16:51.000Z</time>
      </trkpt>
      <trkpt lat="43.46876" lon="6.81591">
        <ele>77.29476</ele>
        <time>2023-04-28T12:17:03.000Z</time>
      </trkpt>
      <trkpt lat="43.46864" lon="6.81595">
        <ele>76.29531</ele>
        <time>2023-04-28T12:17:15.000Z</time>
      </trkpt>
      <trkpt lat="43.46878" lon="6.81603">
        <ele>77.44103</ele>
        <time>2023-04-28T12:18:24.000Z</time>
      </trkpt>
      <trkpt lat="43.46882" lon="6.81633">
        <ele>76.98707</ele>
        <time>2023-04-28T12:18:32.000Z</time>
      </trkpt>
      <trkpt lat="43.46872" lon="6.8164">
        <ele>76.43336</ele>
        <time>2023-04-28T12:18:37.000Z</time>
      </trkpt>
      <trkpt lat="43.4685" lon="6.81632">
        <ele>76.0296</ele>
        <time>2023-04-28T12:18:55.000Z</time>
      </trkpt>
      <trkpt lat="43.4685" lon="6.81632">
        <ele>76.0296</ele>
        <time>2023-04-28T12:18:55.000Z</time>
      </trkpt>
      <trkpt lat="43.46881" lon="6.81648">
        <ele>76.90032</ele>
        <time>2023-04-28T12:20:40.000Z</time>
      </trkpt>
      <trkpt lat="43.46894" lon="6.81704">
        <ele>80.05941</ele>
        <time>2023-04-28T12:20:55.000Z</time>
      </trkpt>
      <trkpt lat="43.46939" lon="6.81806">
        <ele>82.55657</ele>
        <time>2023-04-28T12:21:20.000Z</time>
      </trkpt>
      <trkpt lat="43.46958" lon="6.81843">
        <ele>82.82176</ele>
        <time>2023-04-28T12:21:29.000Z</time>
      </trkpt>
      <trkpt lat="43.47002" lon="6.81894">
        <ele>87.1237</ele>
        <time>2023-04-28T12:21:45.000Z</time>
      </trkpt>
      <trkpt lat="43.47092" lon="6.82062">
        <ele>94.91122</ele>
        <time>2023-04-28T12:22:25.000Z</time>
      </trkpt>
      <trkpt lat="43.47101" lon="6.82141">
        <ele>97.37721</ele>
        <time>2023-04-28T12:22:42.000Z</time>
      </trkpt>
      <trkpt lat="43.47116" lon="6.82197">
        <ele>101.03576</ele>
        <time>2023-04-28T12:22:55.000Z</time>
      </trkpt>
      <trkpt lat="43.47109" lon="6.82216">
        <ele>101.91112</ele>
        <time>2023-04-28T12:23:00.000Z</time>
      </trkpt>
      <trkpt lat="43.47094" lon="6.82229">
        <ele>102.97734</ele>
        <time>2023-04-28T12:23:06.000Z</time>
      </trkpt>
      <trkpt lat="43.47085" lon="6.82223">
        <ele>102.92027</ele>
        <time>2023-04-28T12:23:09.000Z</time>
      </trkpt>
      <trkpt lat="43.4706" lon="6.82164">
        <ele>103.79526</ele>
        <time>2023-04-28T12:23:22.000Z</time>
      </trkpt>
      <trkpt lat="43.46983" lon="6.82033">
        <ele>103.35809</ele>
        <time>2023-04-28T12:23:47.000Z</time>
      </trkpt>
      <trkpt lat="43.46937" lon="6.82028">
        <ele>103.49862</ele>
        <time>2023-04-28T12:23:57.000Z</time>
      </trkpt>
      <trkpt lat="43.46916" lon="6.82045">
        <ele>104.05254</ele>
        <time>2023-04-28T12:24:02.000Z</time>
      </trkpt>
      <trkpt lat="43.46889" lon="6.82089">
        <ele>103.29306</ele>
        <time>2023-04-28T12:24:11.000Z</time>
      </trkpt>
      <trkpt lat="43.46857" lon="6.82092">
        <ele>102.23175</ele>
        <time>2023-04-28T12:24:18.000Z</time>
      </trkpt>
      <trkpt lat="43.46842" lon="6.82076">
        <ele>101.88286</ele>
        <time>2023-04-28T12:24:22.000Z</time>
      </trkpt>
      <trkpt lat="43.46814" lon="6.82017">
        <ele>104.86854</ele>
        <time>2023-04-28T12:24:33.000Z</time>
      </trkpt>
      <trkpt lat="43.46804" lon="6.81964">
        <ele>109.14953</ele>
        <time>2023-04-28T12:24:43.000Z</time>
      </trkpt>
      <trkpt lat="43.46797" lon="6.81959">
        <ele>109.6346</ele>
        <time>2023-04-28T12:24:45.000Z</time>
      </trkpt>
      <trkpt lat="43.46746" lon="6.81968">
        <ele>112.03488</ele>
        <time>2023-04-28T12:24:57.000Z</time>
      </trkpt>
      <trkpt lat="43.46713" lon="6.81932">
        <ele>113.88779</ele>
        <time>2023-04-28T12:25:08.000Z</time>
      </trkpt>
      <trkpt lat="43.46701" lon="6.81889">
        <ele>114.56937</ele>
        <time>2023-04-28T12:25:16.000Z</time>
      </trkpt>
      <trkpt lat="43.46685" lon="6.8186">
        <ele>115.73419</ele>
        <time>2023-04-28T12:25:22.000Z</time>
      </trkpt>
      <trkpt lat="43.46668" lon="6.81847">
        <ele>115.42914</ele>
        <time>2023-04-28T12:25:26.000Z</time>
      </trkpt>
      <trkpt lat="43.46606" lon="6.8183">
        <ele>117.50315</ele>
        <time>2023-04-28T12:25:39.000Z</time>
      </trkpt>
      <trkpt lat="43.46578" lon="6.81829">
        <ele>117.48075</ele>
        <time>2023-04-28T12:25:45.000Z</time>
      </trkpt>
      <trkpt lat="43.46544" lon="6.81876">
        <ele>118.96327</ele>
        <time>2023-04-28T12:25:56.000Z</time>
      </trkpt>
      <trkpt lat="43.46528" lon="6.81886">
        <ele>120.02475</ele>
        <time>2023-04-28T12:25:59.000Z</time>
      </trkpt>
      <trkpt lat="43.46496" lon="6.81884">
        <ele>120.42094</ele>
        <time>2023-04-28T12:26:06.000Z</time>
      </trkpt>
      <trkpt lat="43.46441" lon="6.81907">
        <ele>122.2114</ele>
        <time>2023-04-28T12:26:18.000Z</time>
      </trkpt>
      <trkpt lat="43.46392" lon="6.81911">
        <ele>127.80882</ele>
        <time>2023-04-28T12:26:30.000Z</time>
      </trkpt>
      <trkpt lat="43.46339" lon="6.8194">
        <ele>128.824</ele>
        <time>2023-04-28T12:26:45.000Z</time>
      </trkpt>
      <trkpt lat="43.4624" lon="6.81957">
        <ele>119.67237</ele>
        <time>2023-04-28T12:27:05.000Z</time>
      </trkpt>
      <trkpt lat="43.46178" lon="6.81982">
        <ele>113.50775</ele>
        <time>2023-04-28T12:27:13.000Z</time>
      </trkpt>
      <trkpt lat="43.46151" lon="6.82007">
        <ele>112.06614</ele>
        <time>2023-04-28T12:27:18.000Z</time>
      </trkpt>
      <trkpt lat="43.46143" lon="6.82029">
        <ele>110.09328</ele>
        <time>2023-04-28T12:27:23.000Z</time>
      </trkpt>
      <trkpt lat="43.4616" lon="6.82032">
        <ele>109.3533</ele>
        <time>2023-04-28T12:27:28.000Z</time>
      </trkpt>
      <trkpt lat="43.46191" lon="6.8202">
        <ele>108.00996</ele>
        <time>2023-04-28T12:27:36.000Z</time>
      </trkpt>
      <trkpt lat="43.46192" lon="6.82027">
        <ele>105.99922</ele>
        <time>2023-04-28T12:27:38.000Z</time>
      </trkpt>
      <trkpt lat="43.46163" lon="6.82063">
        <ele>103.17698</ele>
        <time>2023-04-28T12:27:45.000Z</time>
      </trkpt>
      <trkpt lat="43.46128" lon="6.82077">
        <ele>100.5264</ele>
        <time>2023-04-28T12:27:51.000Z</time>
      </trkpt>
      <trkpt lat="43.4612" lon="6.82092">
        <ele>99.14419</ele>
        <time>2023-04-28T12:27:54.000Z</time>
      </trkpt>
      <trkpt lat="43.46134" lon="6.82228">
        <ele>106.87009</ele>
        <time>2023-04-28T12:28:16.000Z</time>
      </trkpt>
      <trkpt lat="43.46133" lon="6.82292">
        <ele>109.94232</ele>
        <time>2023-04-28T12:28:26.000Z</time>
      </trkpt>
      <trkpt lat="43.46122" lon="6.82353">
        <ele>113.08078</ele>
        <time>2023-04-28T12:28:39.000Z</time>
      </trkpt>
      <trkpt lat="43.4609" lon="6.82434">
        <ele>116.47599</ele>
        <time>2023-04-28T12:28:55.000Z</time>
      </trkpt>
      <trkpt lat="43.46062" lon="6.82535">
        <ele>118.5951</ele>
        <time>2023-04-28T12:29:16.000Z</time>
      </trkpt>
      <trkpt lat="43.46022" lon="6.82595">
        <ele>114.20951</ele>
        <time>2023-04-28T12:29:27.000Z</time>
      </trkpt>
      <trkpt lat="43.46017" lon="6.82642">
        <ele>112.43193</ele>
        <time>2023-04-28T12:29:34.000Z</time>
      </trkpt>
      <trkpt lat="43.45998" lon="6.82669">
        <ele>109.68823</ele>
        <time>2023-04-28T12:29:39.000Z</time>
      </trkpt>
      <trkpt lat="43.45961" lon="6.82686">
        <ele>105.58095</ele>
        <time>2023-04-28T12:29:46.000Z</time>
      </trkpt>
      <trkpt lat="43.45953" lon="6.827">
        <ele>104.09338</ele>
        <time>2023-04-28T12:29:49.000Z</time>
      </trkpt>
      <trkpt lat="43.45947" lon="6.82755">
        <ele>99.66158</ele>
        <time>2023-04-28T12:29:57.000Z</time>
      </trkpt>
      <trkpt lat="43.45919" lon="6.82798">
        <ele>96.69236</ele>
        <time>2023-04-28T12:30:05.000Z</time>
      </trkpt>
      <trkpt lat="43.45911" lon="6.82931">
        <ele>89.95223</ele>
        <time>2023-04-28T12:30:23.000Z</time>
      </trkpt>
      <trkpt lat="43.45889" lon="6.82984">
        <ele>87.81174</ele>
        <time>2023-04-28T12:30:31.000Z</time>
      </trkpt>
      <trkpt lat="43.45877" lon="6.82995">
        <ele>86.94756</ele>
        <time>2023-04-28T12:30:34.000Z</time>
      </trkpt>
      <trkpt lat="43.45841" lon="6.82995">
        <ele>85.50155</ele>
        <time>2023-04-28T12:30:41.000Z</time>
      </trkpt>
      <trkpt lat="43.45829" lon="6.8298">
        <ele>85.78083</ele>
        <time>2023-04-28T12:30:45.000Z</time>
      </trkpt>
      <trkpt lat="43.45817" lon="6.82932">
        <ele>85.17416</ele>
        <time>2023-04-28T12:30:53.000Z</time>
      </trkpt>
      <trkpt lat="43.45792" lon="6.82906">
        <ele>82.60489</ele>
        <time>2023-04-28T12:31:00.000Z</time>
      </trkpt>
      <trkpt lat="43.45767" lon="6.82891">
        <ele>81.32604</ele>
        <time>2023-04-28T12:31:06.000Z</time>
      </trkpt>
      <trkpt lat="43.45709" lon="6.82886">
        <ele>75.65878</ele>
        <time>2023-04-28T12:31:20.000Z</time>
      </trkpt>
      <trkpt lat="43.45714" lon="6.82909">
        <ele>74.73509</ele>
        <time>2023-04-28T12:31:25.000Z</time>
      </trkpt>
      <trkpt lat="43.4575" lon="6.82956">
        <ele>72.43538</ele>
        <time>2023-04-28T12:31:35.000Z</time>
      </trkpt>
      <trkpt lat="43.45766" lon="6.83067">
        <ele>66.40173</ele>
        <time>2023-04-28T12:31:51.000Z</time>
      </trkpt>
      <trkpt lat="43.45762" lon="6.8308">
        <ele>64.85861</ele>
        <time>2023-04-28T12:31:55.000Z</time>
      </trkpt>
      <trkpt lat="43.45708" lon="6.83101">
        <ele>61.75385</ele>
        <time>2023-04-28T12:32:16.000Z</time>
      </trkpt>
      <trkpt lat="43.45693" lon="6.83045">
        <ele>59.42957</ele>
        <time>2023-04-28T12:32:28.000Z</time>
      </trkpt>
      <trkpt lat="43.45628" lon="6.83006">
        <ele>57.43138</ele>
        <time>2023-04-28T12:32:43.000Z</time>
      </trkpt>
      <trkpt lat="43.45611" lon="6.82957">
        <ele>58.51918</ele>
        <time>2023-04-28T12:32:52.000Z</time>
      </trkpt>
      <trkpt lat="43.456" lon="6.82945">
        <ele>58.63519</ele>
        <time>2023-04-28T12:32:56.000Z</time>
      </trkpt>
      <trkpt lat="43.45584" lon="6.82936">
        <ele>58.31428</ele>
        <time>2023-04-28T12:33:00.000Z</time>
      </trkpt>
      <trkpt lat="43.45545" lon="6.8295">
        <ele>55.07606</ele>
        <time>2023-04-28T12:33:08.000Z</time>
      </trkpt>
      <trkpt lat="43.45531" lon="6.8297">
        <ele>55.76026</ele>
        <time>2023-04-28T12:33:12.000Z</time>
      </trkpt>
      <trkpt lat="43.45524" lon="6.83047">
        <ele>56.85794</ele>
        <time>2023-04-28T12:33:31.000Z</time>
      </trkpt>
      <trkpt lat="43.45499" lon="6.83158">
        <ele>62.8</ele>
        <time>2023-04-28T12:34:01.000Z</time>
      </trkpt>
      <trkpt lat="43.45499" lon="6.83158">
        <ele>62.8</ele>
      </trkpt>
      <trkpt lat="43.45493" lon="6.83185">
        <ele>62</ele>
      </trkpt>
      <trkpt lat="43.45491" lon="6.83196">
        <ele>61.5</ele>
      </trkpt>
      <trkpt lat="43.45483" lon="6.83214">
        <ele>60.3</ele>
      </trkpt>
      <trkpt lat="43.45483" lon="6.83214">
        <ele>60.3</ele>
      </trkpt>
      <trkpt lat="43.4548" lon="6.83221">
        <ele>59.9</ele>
      </trkpt>
      <trkpt lat="43.45477" lon="6.83224">
        <ele>59.9</ele>
      </trkpt>
    </trkseg>
  </trk>
</gpx>